createdAt,value
2018-12-11T00:00:33.547Z,3.17
2018-12-11T00:03:02.222Z,2.90
2018-12-11T00:05:31.367Z,3.10
2018-12-11T00:08:00.237Z,3.00
2018-12-11T00:10:29.111Z,3.03
2018-12-11T00:12:58.113Z,2.70
2018-12-11T00:15:27.104Z,2.87
2018-12-11T00:17:55.975Z,2.70
2018-12-11T00:20:25.031Z,2.90
2018-12-11T00:22:54.368Z,2.57
2018-12-11T00:25:23.175Z,2.67
2018-12-11T00:27:51.856Z,3.13
2018-12-11T00:30:20.913Z,2.97
2018-12-11T00:32:49.901Z,3.07
2018-12-11T00:35:18.927Z,2.80
2018-12-11T00:37:47.980Z,3.23
2018-12-11T00:40:17.042Z,2.90
2018-12-11T00:42:45.916Z,2.83
2018-12-11T00:45:14.928Z,2.63
2018-12-11T00:47:43.821Z,2.83
2018-12-11T00:50:12.940Z,2.73
2018-12-11T00:52:41.938Z,2.73
2018-12-11T00:55:10.811Z,2.97
2018-12-11T00:57:39.967Z,2.67
2018-12-11T01:00:10.267Z,2.77
2018-12-11T01:02:39.425Z,2.67
2018-12-11T01:05:08.504Z,2.67
2018-12-11T01:07:37.508Z,2.70
2018-12-11T01:10:09.802Z,2.43
2018-12-11T01:12:38.957Z,2.37
2018-12-11T01:15:08.271Z,2.40
2018-12-11T01:17:37.226Z,2.43
2018-12-11T01:20:07.016Z,2.57
2018-12-11T01:22:35.659Z,2.57
2018-12-11T01:25:04.794Z,2.47
2018-12-11T01:27:33.657Z,2.70
2018-12-11T01:30:02.851Z,2.40
2018-12-11T01:32:32.050Z,2.50
2018-12-11T01:35:01.205Z,2.93
2018-12-11T01:37:30.355Z,2.33
2018-12-11T01:39:59.508Z,2.80
2018-12-11T01:42:28.495Z,2.60
2018-12-11T01:44:57.319Z,2.40
2018-12-11T01:47:26.372Z,2.40
2018-12-11T01:49:55.172Z,2.37
2018-12-11T01:52:24.146Z,2.20
2018-12-11T01:54:52.912Z,2.60
2018-12-11T01:57:21.599Z,2.30
2018-12-11T01:59:50.576Z,2.60
2018-12-11T02:02:19.647Z,2.40
2018-12-11T02:04:48.786Z,2.67
2018-12-11T02:07:17.897Z,2.00
2018-12-11T02:09:46.784Z,2.47
2018-12-11T02:12:15.725Z,2.50
2018-12-11T02:14:44.784Z,2.20
2018-12-11T02:17:13.905Z,2.10
2018-12-11T02:19:42.845Z,2.10
2018-12-11T02:22:11.850Z,2.20
2018-12-11T02:24:40.786Z,2.27
2018-12-11T02:27:09.923Z,1.80
2018-12-11T02:29:38.648Z,2.10
2018-12-11T02:32:07.772Z,2.30
2018-12-11T02:34:36.618Z,2.20
2018-12-11T02:37:05.583Z,2.13
2018-12-11T02:39:34.516Z,2.70
2018-12-11T02:42:03.501Z,2.07
2018-12-11T02:44:32.607Z,1.87
2018-12-11T02:47:01.826Z,2.13
2018-12-11T02:49:30.864Z,2.20
2018-12-11T02:52:00.016Z,1.90
2018-12-11T02:54:28.966Z,2.30
2018-12-11T02:56:58.014Z,2.30
2018-12-11T02:59:26.888Z,2.20
2018-12-11T03:01:55.870Z,2.17
2018-12-11T03:04:24.745Z,1.97
2018-12-11T03:06:53.440Z,2.30
2018-12-11T03:09:22.503Z,2.23
2018-12-11T03:11:51.496Z,2.30
2018-12-11T03:14:20.525Z,1.97
2018-12-11T03:16:49.733Z,2.07
2018-12-11T03:19:18.933Z,2.20
2018-12-11T03:21:47.933Z,2.30
2018-12-11T03:24:17.131Z,2.27
2018-12-11T03:26:46.305Z,2.20
2018-12-11T03:29:15.548Z,2.47
2018-12-11T03:31:44.619Z,2.47
2018-12-11T03:34:20.018Z,2.73
2018-12-11T03:36:49.009Z,3.17
2018-12-11T03:39:18.098Z,4.17
2018-12-11T03:41:47.130Z,3.27
2018-12-11T03:44:16.050Z,3.03
2018-12-11T03:46:44.943Z,2.50
2018-12-11T03:49:13.815Z,2.80
2018-12-11T03:51:42.664Z,2.00
2018-12-11T03:54:11.765Z,2.07
2018-12-11T03:56:40.938Z,1.90
2018-12-11T03:59:10.055Z,1.73
2018-12-11T04:01:38.977Z,2.20
2018-12-11T04:04:07.711Z,1.80
2018-12-11T04:06:36.371Z,2.13
2018-12-11T04:09:07.212Z,2.03
2018-12-11T04:11:36.303Z,2.17
2018-12-11T04:14:05.254Z,2.23
2018-12-11T04:16:34.129Z,1.80
2018-12-11T04:19:03.091Z,2.20
2018-12-11T04:21:32.237Z,2.00
2018-12-11T04:24:01.387Z,2.10
2018-12-11T04:26:30.220Z,2.10
2018-12-11T04:28:59.372Z,2.30
2018-12-11T04:31:28.277Z,2.43
2018-12-11T04:33:57.427Z,2.63
2018-12-11T04:36:26.549Z,3.77
2018-12-11T04:38:55.612Z,5.00
2018-12-11T04:41:24.395Z,3.43
2018-12-11T04:43:53.534Z,2.13
2018-12-11T04:46:22.519Z,2.07
2018-12-11T04:48:51.390Z,1.87
2018-12-11T04:51:20.320Z,2.30
2018-12-11T04:53:49.287Z,2.50
2018-12-11T04:56:18.328Z,2.37
2018-12-11T04:58:47.212Z,2.50
2018-12-11T05:01:16.097Z,2.50
2018-12-11T05:03:45.091Z,2.07
2018-12-11T05:06:14.188Z,2.10
2018-12-11T05:08:43.269Z,2.50
2018-12-11T05:11:12.244Z,2.40
2018-12-11T05:13:41.166Z,2.70
2018-12-11T05:16:10.120Z,3.23
2018-12-11T05:18:39.027Z,3.43
2018-12-11T05:21:08.208Z,3.40
2018-12-11T05:23:37.136Z,2.57
2018-12-11T05:26:06.200Z,2.20
2018-12-11T05:28:35.232Z,2.50
2018-12-11T05:31:04.258Z,2.57
2018-12-11T05:33:33.033Z,2.30
2018-12-11T05:36:01.928Z,2.13
2018-12-11T05:38:30.761Z,2.27
2018-12-11T05:40:59.882Z,2.47
2018-12-11T05:43:28.916Z,2.63
2018-12-11T05:45:57.713Z,3.10
2018-12-11T05:48:26.677Z,3.80
2018-12-11T05:50:55.769Z,8.40
2018-12-11T05:53:24.838Z,6.47
2018-12-11T05:55:53.933Z,8.00
2018-12-11T05:58:22.873Z,4.20
2018-12-11T06:00:51.688Z,4.90
2018-12-11T06:03:20.625Z,5.00
2018-12-11T06:05:49.704Z,3.90
2018-12-11T06:08:18.819Z,6.83
2018-12-11T06:10:47.712Z,7.17
2018-12-11T06:13:16.776Z,4.27
2018-12-11T06:15:45.818Z,3.47
2018-12-11T06:18:14.760Z,8.00
2018-12-11T06:20:43.798Z,3.40
2018-12-11T06:23:12.806Z,5.40
2018-12-11T06:25:41.725Z,5.60
2018-12-11T06:28:10.668Z,5.43
2018-12-11T06:30:39.600Z,11.63
2018-12-11T06:33:08.560Z,10.00
2018-12-11T06:35:37.592Z,10.10
2018-12-11T06:38:06.549Z,8.20
2018-12-11T06:40:35.560Z,9.97
2018-12-11T06:43:04.504Z,4.67
2018-12-11T06:45:33.492Z,8.60
2018-12-11T06:48:02.354Z,5.17
2018-12-11T06:50:31.163Z,3.50
2018-12-11T06:53:00.395Z,8.63
2018-12-11T06:55:29.598Z,5.67
2018-12-11T06:57:58.727Z,4.93
2018-12-11T07:00:27.873Z,10.10
2018-12-11T07:02:56.836Z,7.93
2018-12-11T07:05:25.878Z,10.90
2018-12-11T07:07:54.647Z,16.23
2018-12-11T07:10:23.629Z,9.70
2018-12-11T07:12:52.679Z,5.57
2018-12-11T07:15:21.707Z,10.70
2018-12-11T07:17:50.584Z,3.40
2018-12-11T07:20:19.237Z,7.40
2018-12-11T07:22:48.116Z,9.80
2018-12-11T07:25:17.014Z,2.80
2018-12-11T07:27:45.899Z,3.43
2018-12-11T07:30:15.040Z,6.07
2018-12-11T07:32:44.071Z,4.10
2018-12-11T07:35:13.141Z,2.87
2018-12-11T07:37:42.004Z,4.93
2018-12-11T07:40:10.946Z,3.60
2018-12-11T07:42:39.987Z,4.00
2018-12-11T07:45:08.904Z,2.90
2018-12-11T07:47:37.767Z,3.20
2018-12-11T07:50:06.654Z,2.97
2018-12-11T07:52:35.752Z,3.17
2018-12-11T07:55:04.898Z,3.30
2018-12-11T07:57:33.855Z,4.40
2018-12-11T08:00:03.026Z,2.90
2018-12-11T08:02:32.146Z,3.07
2018-12-11T08:05:01.197Z,5.97
2018-12-11T08:07:29.978Z,4.13
2018-12-11T08:09:58.905Z,9.17
2018-12-11T08:12:28.095Z,3.87
2018-12-11T08:14:57.388Z,3.17
2018-12-11T08:17:26.374Z,2.50
2018-12-11T08:19:55.542Z,2.80
2018-12-11T08:22:24.324Z,3.60
2018-12-11T08:24:53.497Z,3.43
2018-12-11T08:27:22.545Z,2.53
2018-12-11T08:29:51.584Z,3.13
2018-12-11T08:32:20.642Z,3.37
2018-12-11T08:34:49.861Z,3.10
2018-12-11T08:37:18.815Z,3.00
2018-12-11T08:39:47.786Z,2.93
2018-12-11T08:42:16.845Z,3.93
2018-12-11T08:44:51.188Z,3.00
2018-12-11T08:47:17.212Z,3.50
2018-12-11T08:49:45.993Z,2.20
2018-12-11T08:52:14.782Z,2.83
2018-12-11T08:54:43.893Z,5.37
2018-12-11T08:57:12.832Z,2.00
2018-12-11T08:59:41.551Z,2.73
2018-12-11T09:02:10.231Z,2.20
2018-12-11T09:04:39.105Z,2.40
2018-12-11T09:07:08.030Z,2.50
2018-12-11T09:09:36.961Z,2.00
2018-12-11T09:12:05.824Z,2.50
2018-12-11T09:14:34.745Z,2.50
2018-12-11T09:17:10.015Z,2.60
2018-12-11T09:19:34.687Z,2.70
2018-12-11T09:22:03.788Z,3.10
2018-12-11T09:24:32.903Z,3.17
2018-12-11T09:27:01.953Z,2.80
2018-12-11T09:29:30.927Z,2.20
2018-12-11T09:31:59.953Z,3.27
2018-12-11T09:34:28.916Z,3.10
2018-12-11T09:36:57.968Z,3.17
2018-12-11T09:39:27.032Z,2.80
2018-12-11T09:41:55.878Z,4.20
2018-12-11T09:44:24.962Z,7.77
2018-12-11T09:46:53.953Z,4.30
2018-12-11T09:49:22.869Z,6.23
2018-12-11T09:51:51.849Z,7.97
2018-12-11T09:54:21.050Z,4.43
2018-12-11T09:56:50.049Z,3.20
2018-12-11T09:59:23.364Z,3.07
2018-12-11T10:01:49.896Z,3.57
2018-12-11T10:04:18.648Z,3.90
2018-12-11T10:06:47.639Z,5.10
2018-12-11T10:09:16.535Z,3.13
2018-12-11T10:11:45.738Z,2.90
2018-12-11T10:14:14.532Z,2.47
2018-12-11T10:16:43.301Z,3.10
2018-12-11T10:19:12.504Z,2.97
2018-12-11T10:21:41.590Z,3.90
2018-12-11T10:24:10.768Z,4.33
2018-12-11T10:26:39.554Z,4.30
2018-12-11T10:29:08.648Z,2.63
2018-12-11T10:31:37.727Z,2.90
2018-12-11T10:34:06.458Z,3.70
2018-12-11T10:36:35.344Z,5.00
2018-12-11T10:39:05.988Z,6.87
2018-12-11T10:41:34.966Z,5.20
2018-12-11T10:44:03.878Z,3.73
2018-12-11T10:46:33.908Z,5.53
2018-12-11T10:49:03.046Z,4.47
2018-12-11T10:51:32.213Z,3.30
2018-12-11T10:54:01.359Z,3.40
2018-12-11T10:56:30.636Z,5.43
2018-12-11T10:58:59.756Z,10.73
2018-12-11T11:01:30.704Z,9.67
2018-12-11T11:03:59.662Z,6.70
2018-12-11T11:06:28.573Z,2.40
2018-12-11T11:08:57.712Z,2.83
2018-12-11T11:11:26.551Z,6.70
2018-12-11T11:13:55.274Z,10.73
2018-12-11T11:16:24.642Z,4.67
2018-12-11T11:18:54.107Z,4.97
2018-12-11T11:21:23.010Z,5.07
2018-12-11T11:23:52.013Z,3.77
2018-12-11T11:26:20.963Z,2.80
2018-12-11T11:28:50.012Z,3.00
2018-12-11T11:31:18.780Z,2.80
2018-12-11T11:33:47.748Z,4.40
2018-12-11T11:36:16.837Z,3.80
2018-12-11T11:38:45.891Z,3.70
2018-12-11T11:41:14.915Z,3.93
2018-12-11T11:43:43.654Z,2.60
2018-12-11T11:46:12.570Z,2.30
2018-12-11T11:48:41.452Z,3.70
2018-12-11T11:51:10.560Z,4.27
2018-12-11T11:53:39.636Z,3.13
2018-12-11T11:56:08.763Z,2.80
2018-12-11T11:58:37.922Z,7.50
2018-12-11T12:01:06.872Z,8.03
2018-12-11T12:03:35.779Z,6.27
2018-12-11T12:06:04.784Z,5.00
2018-12-11T12:08:33.563Z,6.37
2018-12-11T12:11:02.365Z,8.20
2018-12-11T12:13:31.475Z,4.17
2018-12-11T12:16:00.216Z,8.20
2018-12-11T12:18:29.136Z,4.13
2018-12-11T12:20:58.484Z,5.97
2018-12-11T12:23:27.472Z,3.40
2018-12-11T12:25:56.448Z,3.67
2018-12-11T12:28:25.324Z,3.70
2018-12-11T12:30:56.152Z,8.17
2018-12-11T12:33:25.241Z,4.90
2018-12-11T12:35:54.280Z,4.30
2018-12-11T12:38:22.998Z,8.20
2018-12-11T12:40:52.067Z,6.97
2018-12-11T12:43:20.993Z,8.07
2018-12-11T12:45:50.143Z,5.60
2018-12-11T12:48:18.967Z,5.77
2018-12-11T12:50:47.868Z,4.10
2018-12-11T12:53:16.628Z,4.57
2018-12-11T12:55:45.687Z,20.03
2018-12-11T12:58:14.652Z,24.80
2018-12-11T13:00:43.682Z,6.50
2018-12-11T13:03:12.407Z,6.17
2018-12-11T13:05:41.365Z,3.80
2018-12-11T13:08:10.216Z,3.20
2018-12-11T13:10:38.968Z,2.90
2018-12-11T13:13:09.340Z,4.00
2018-12-11T13:15:38.739Z,3.63
2018-12-11T13:18:07.749Z,3.33
2018-12-11T13:20:36.606Z,9.70
2018-12-11T13:23:05.540Z,6.87
2018-12-11T13:25:34.572Z,6.17
2018-12-11T13:28:03.275Z,5.30
2018-12-11T13:30:31.979Z,3.60
2018-12-11T13:33:00.898Z,11.00
2018-12-11T13:35:29.800Z,4.30
2018-12-11T13:37:58.853Z,33.83
2018-12-11T13:40:28.107Z,16.27
2018-12-11T13:42:57.428Z,17.83
2018-12-11T13:45:26.276Z,109.87
2018-12-11T13:47:55.324Z,109.07
2018-12-11T13:50:24.438Z,4.07
2018-12-11T13:52:53.552Z,11.87
2018-12-11T13:55:22.668Z,13.57
2018-12-11T13:57:51.597Z,4.87
2018-12-11T14:00:20.564Z,5.30
2018-12-11T14:02:49.456Z,6.73
2018-12-11T14:05:18.744Z,5.57
2018-12-11T14:07:47.776Z,7.33
2018-12-11T14:10:16.823Z,8.70
2018-12-11T14:13:00.417Z,10.83
2018-12-11T14:15:29.298Z,13.67
2018-12-11T14:17:58.163Z,8.87
2018-12-11T14:20:26.998Z,7.03
2018-12-11T14:22:56.066Z,6.13
2018-12-11T14:25:24.895Z,7.30
2018-12-11T14:27:53.983Z,7.60
2018-12-11T14:30:23.112Z,9.50
2018-12-11T14:32:51.994Z,8.57
2018-12-11T14:35:21.102Z,4.67
2018-12-11T14:37:50.148Z,24.83
2018-12-11T14:40:19.183Z,5.63
2018-12-11T14:42:48.205Z,5.20
2018-12-11T14:45:16.883Z,5.90
2018-12-11T14:47:45.818Z,6.00
2018-12-11T14:50:14.866Z,9.07
2018-12-11T14:52:44.102Z,9.30
2018-12-11T14:55:13.166Z,10.90
2018-12-11T14:57:42.201Z,7.27
2018-12-11T15:00:11.628Z,6.80
2018-12-11T15:02:40.960Z,3.97
2018-12-11T15:05:10.499Z,3.77
2018-12-11T15:07:39.766Z,4.00
2018-12-11T15:10:10.820Z,4.37
2018-12-11T15:12:39.721Z,4.40
2018-12-11T15:15:10.396Z,3.97
2018-12-11T15:17:39.419Z,3.10
2018-12-11T15:20:09.345Z,3.57
2018-12-11T15:22:38.329Z,3.77
2018-12-11T15:25:07.457Z,4.00
2018-12-11T15:27:36.503Z,6.40
2018-12-11T15:30:06.014Z,5.00
2018-12-11T15:32:34.774Z,4.10
2018-12-11T15:35:04.232Z,4.13
2018-12-11T15:37:33.139Z,5.40
2018-12-11T15:40:01.798Z,7.50
2018-12-11T15:42:30.760Z,6.40
2018-12-11T15:44:59.812Z,11.23
2018-12-11T15:47:28.943Z,11.90
2018-12-11T15:49:57.952Z,8.20
2018-12-11T15:52:26.710Z,5.27
2018-12-11T15:54:55.660Z,9.20
2018-12-11T15:57:24.717Z,10.23
2018-12-11T15:59:53.655Z,9.87
2018-12-11T16:02:22.583Z,8.87
2018-12-11T16:04:51.490Z,6.33
2018-12-11T16:07:20.367Z,7.50
2018-12-11T16:09:49.399Z,8.37
2018-12-11T16:12:18.407Z,8.10
2018-12-11T16:14:48.187Z,7.20
2018-12-11T16:17:17.078Z,7.87
2018-12-11T16:19:46.175Z,7.93
2018-12-11T16:22:15.299Z,5.23
2018-12-11T16:24:44.197Z,6.40
2018-12-11T16:27:13.372Z,5.40
2018-12-11T16:29:42.304Z,4.87
2018-12-11T16:32:11.339Z,4.63
2018-12-11T16:34:40.314Z,4.50
2018-12-11T16:37:10.280Z,4.67
2018-12-11T16:39:39.457Z,4.43
2018-12-11T16:42:08.577Z,3.17
2018-12-11T16:44:37.628Z,3.20
2018-12-11T16:47:06.827Z,3.20
2018-12-11T16:49:35.916Z,3.83
2018-12-11T16:52:04.932Z,2.53
2018-12-11T16:54:34.164Z,2.90
2018-12-11T16:57:03.248Z,4.97
2018-12-11T16:59:33.735Z,6.90
2018-12-11T17:02:02.646Z,4.07
2018-12-11T17:04:31.659Z,10.90
2018-12-11T17:07:00.624Z,9.53
2018-12-11T17:09:29.772Z,8.93
2018-12-11T17:11:58.855Z,15.20
2018-12-11T17:14:28.378Z,5.20
2018-12-11T17:16:57.293Z,7.30
2018-12-11T17:19:26.103Z,4.80
2018-12-11T17:21:55.209Z,4.47
2018-12-11T17:24:24.271Z,3.70
2018-12-11T17:26:53.306Z,8.10
2018-12-11T17:29:24.411Z,9.43
2018-12-11T17:31:53.810Z,10.67
2018-12-11T17:34:22.836Z,18.00
2018-12-11T17:36:52.059Z,20.83
2018-12-11T17:39:21.298Z,33.73
2018-12-11T17:41:50.266Z,56.37
2018-12-11T17:44:19.290Z,42.83
2018-12-11T17:46:48.440Z,42.13
2018-12-11T17:49:17.512Z,23.60
2018-12-11T17:51:46.634Z,18.93
2018-12-11T17:54:15.704Z,28.27
2018-12-11T17:56:44.861Z,17.30
2018-12-11T17:59:14.152Z,22.70
2018-12-11T18:01:44.642Z,15.87
2018-12-11T18:04:14.555Z,12.13
2018-12-11T18:06:44.394Z,11.57
2018-12-11T18:09:14.445Z,6.77
2018-12-11T18:11:43.846Z,5.90
2018-12-11T18:14:12.928Z,6.50
2018-12-11T18:16:41.987Z,7.70
2018-12-11T18:19:11.160Z,9.97
2018-12-11T18:21:40.772Z,7.10
2018-12-11T18:24:09.578Z,7.70
2018-12-11T18:26:38.609Z,6.30
2018-12-11T18:29:07.715Z,9.13
2018-12-11T18:31:36.995Z,4.17
2018-12-11T18:34:10.937Z,8.60
2018-12-11T18:36:37.747Z,7.80
2018-12-11T18:39:08.759Z,7.20
2018-12-11T18:41:38.156Z,6.43
2018-12-11T18:44:07.115Z,5.97
2018-12-11T18:46:35.922Z,5.90
2018-12-11T18:49:05.198Z,3.80
2018-12-11T18:51:35.401Z,3.10
2018-12-11T18:54:05.502Z,3.50
2018-12-11T18:56:34.232Z,3.70
2018-12-11T18:59:03.440Z,3.27
2018-12-11T19:01:32.649Z,3.83
2018-12-11T19:04:01.806Z,3.50
2018-12-11T19:06:31.594Z,3.30
2018-12-11T19:09:05.699Z,5.37
2018-12-11T19:11:31.624Z,11.87
2018-12-11T19:14:00.545Z,13.27
2018-12-11T19:16:29.587Z,9.50
2018-12-11T19:18:58.598Z,8.63
2018-12-11T19:21:27.770Z,11.30
2018-12-11T19:24:19.915Z,5.67
2018-12-11T19:26:49.129Z,5.77
2018-12-11T19:29:18.190Z,5.80
2018-12-11T19:31:46.993Z,5.63
2018-12-11T19:34:16.253Z,4.60
2018-12-11T19:36:45.283Z,4.57
2018-12-11T19:39:14.331Z,4.40
2018-12-11T19:41:43.435Z,4.33
2018-12-11T19:44:12.328Z,4.53
2018-12-11T19:46:42.027Z,3.60
2018-12-11T19:49:10.979Z,3.07
2018-12-11T19:51:39.660Z,3.27
2018-12-11T19:54:08.605Z,4.00
2018-12-11T19:56:38.071Z,5.03
2018-12-11T19:59:06.980Z,4.77
2018-12-11T20:01:35.966Z,4.33
2018-12-11T20:04:05.595Z,4.40
2018-12-11T20:06:34.814Z,5.00
2018-12-11T20:09:07.241Z,4.93
2018-12-11T20:11:36.222Z,4.37
2018-12-11T20:14:05.351Z,4.13
2018-12-11T20:16:34.384Z,4.57
2018-12-11T20:19:03.593Z,3.23
2018-12-11T20:21:32.521Z,4.00
2018-12-11T20:24:04.888Z,3.83
2018-12-11T20:26:36.522Z,3.40
2018-12-11T20:29:03.500Z,4.00
2018-12-11T20:31:32.528Z,2.90
2018-12-11T20:34:01.541Z,14.93
2018-12-11T20:36:30.305Z,4.37
2018-12-11T20:39:00.288Z,5.10
2018-12-11T20:41:29.009Z,4.00
2018-12-11T20:43:57.866Z,7.77
2018-12-11T20:46:27.049Z,3.80
2018-12-11T20:48:56.112Z,3.73
2018-12-11T20:51:25.170Z,5.87
2018-12-11T20:53:54.247Z,5.13
2018-12-11T20:56:23.125Z,6.43
2018-12-11T20:58:52.068Z,4.00
2018-12-11T21:01:21.219Z,6.23
2018-12-11T21:03:50.039Z,6.47
2018-12-11T21:06:19.262Z,4.70
2018-12-11T21:08:48.269Z,5.40
2018-12-11T21:11:17.154Z,5.97
2018-12-11T21:13:46.237Z,6.00
2018-12-11T21:16:15.167Z,3.77
2018-12-11T21:18:44.571Z,4.77
2018-12-11T21:21:13.795Z,4.40
2018-12-11T21:23:42.634Z,3.60
2018-12-11T21:26:11.822Z,5.13
2018-12-11T21:28:40.853Z,3.87
2018-12-11T21:31:09.883Z,4.77
2018-12-11T21:33:39.038Z,3.70
2018-12-11T21:36:07.992Z,3.87
2018-12-11T21:38:36.889Z,3.83
2018-12-11T21:41:05.653Z,3.50
2018-12-11T21:43:34.440Z,3.80
2018-12-11T21:46:03.357Z,3.10
2018-12-11T21:48:32.411Z,5.00
2018-12-11T21:51:01.585Z,3.50
2018-12-11T21:53:30.537Z,3.47
2018-12-11T21:55:59.471Z,3.07
2018-12-11T21:58:28.560Z,3.50
2018-12-11T22:00:57.404Z,3.00
2018-12-11T22:03:26.906Z,3.30
2018-12-11T22:05:55.920Z,3.60
2018-12-11T22:08:25.189Z,2.80
2018-12-11T22:10:54.229Z,2.80
2018-12-11T22:13:23.282Z,2.60
2018-12-11T22:15:52.275Z,3.20
2018-12-11T22:18:21.246Z,3.80
2018-12-11T22:20:50.423Z,2.73
2018-12-11T22:23:19.497Z,3.37
2018-12-11T22:25:48.670Z,3.00
2018-12-11T22:28:17.807Z,2.60
2018-12-11T22:30:46.896Z,4.23
2018-12-11T22:33:15.930Z,4.13
2018-12-11T22:35:44.767Z,3.57
2018-12-11T22:38:13.861Z,2.83
2018-12-11T22:40:42.879Z,3.07
2018-12-11T22:43:11.790Z,3.13
2018-12-11T22:45:40.683Z,3.23
2018-12-11T22:48:09.648Z,3.30
2018-12-11T22:50:38.468Z,3.47
2018-12-11T22:53:07.235Z,4.10
2018-12-11T22:55:36.328Z,3.13
2018-12-11T22:58:05.496Z,2.67
2018-12-11T23:00:34.544Z,2.93
2018-12-11T23:03:03.688Z,3.00
2018-12-11T23:05:32.625Z,3.27
2018-12-11T23:08:01.565Z,2.70
2018-12-11T23:10:30.528Z,2.70
2018-12-11T23:12:59.291Z,2.90
2018-12-11T23:15:28.331Z,2.80
2018-12-11T23:17:57.478Z,2.53
2018-12-11T23:20:26.529Z,3.30
2018-12-11T23:22:55.216Z,3.10
2018-12-11T23:25:24.349Z,2.80
2018-12-11T23:27:53.109Z,3.40
2018-12-11T23:30:22.284Z,2.70
2018-12-11T23:32:51.344Z,5.63
2018-12-11T23:35:20.714Z,7.10
2018-12-11T23:37:49.633Z,3.73
2018-12-11T23:40:18.691Z,2.87
2018-12-11T23:42:47.764Z,4.53
2018-12-11T23:45:16.813Z,2.73
2018-12-11T23:47:45.845Z,2.97
2018-12-11T23:50:14.883Z,2.93
2018-12-11T23:52:43.953Z,3.00
2018-12-11T23:55:12.666Z,3.10
2018-12-11T23:57:41.368Z,3.10
